Time;durP1;ratioP1;P1;durP2;ratioP2;P2;SDS_P1;SDS_P2;PMS_P1;PMS_P2;Temp;Humidity;BMP_temperature;BMP_pressure;BME280_temperature;BME280_humidity;BME280_pressure;Samples;Min_cycle;Max_cycle;Signal;HPM_P1;HPM_P2
2022/12/31 00:00:22;;;;;;;4.45;3.20;;;;;;;12.68;100.00;100295.94;5333291;27;20027;-80
2022/12/31 00:02:53;;;;;;;3.20;2.90;;;;;;;12.70;100.00;100285.06;5324965;27;20035;-81
2022/12/31 00:05:24;;;;;;;4.43;2.78;;;;;;;12.68;100.00;100279.03;5341380;27;20506;-81
2022/12/31 00:07:56;;;;;;;5.40;2.90;;;;;;;12.68;100.00;100285.22;5344602;27;20027;-81
2022/12/31 00:10:28;;;;;;;3.10;2.90;;;;;;;12.71;100.00;100284.06;5339896;27;20036;-80
2022/12/31 00:13:00;;;;;;;2.65;2.45;;;;;;;12.72;100.00;100285.72;5335732;27;20476;-81
2022/12/31 00:15:31;;;;;;;5.22;2.83;;;;;;;12.73;100.00;100291.91;5314998;27;20028;-80
2022/12/31 00:18:02;;;;;;;3.00;2.70;;;;;;;12.74;100.00;100280.19;5343008;27;20023;-81
2022/12/31 00:20:37;;;;;;;2.92;2.72;;;;;;;12.74;100.00;100274.84;5339681;27;20101;-80
2022/12/31 00:23:09;;;;;;;3.53;2.40;;;;;;;12.77;100.00;100293.25;5340000;27;20111;-82
2022/12/31 00:25:41;;;;;;;7.07;3.13;;;;;;;12.76;100.00;100289.75;5336842;27;20134;-80
2022/12/31 00:28:12;;;;;;;4.38;2.90;;;;;;;12.77;100.00;100287.91;5331654;27;20392;-81
2022/12/31 00:30:43;;;;;;;4.72;3.30;;;;;;;12.80;100.00;100284.88;5314393;27;31979;-81
2022/12/31 00:33:14;;;;;;;3.85;3.10;;;;;;;12.81;100.00;100275.84;5329950;27;20325;-81
2022/12/31 00:35:46;;;;;;;3.92;3.63;;;;;;;12.81;100.00;100265.97;5330240;27;20507;-81
2022/12/31 00:38:17;;;;;;;4.32;3.60;;;;;;;12.81;100.00;100265.97;5330652;27;20357;-81
2022/12/31 00:40:48;;;;;;;4.45;3.55;;;;;;;12.83;100.00;100255.09;5335870;27;20027;-81
2022/12/31 00:43:20;;;;;;;4.43;3.60;;;;;;;12.78;100.00;100262.78;5331683;27;20081;-81
2022/12/31 00:45:51;;;;;;;3.38;3.08;;;;;;;12.78;100.00;100276.16;5308768;27;20028;-81
2022/12/31 00:48:22;;;;;;;3.53;2.88;;;;;;;12.82;100.00;100269.50;5313672;27;20035;-80
2022/12/31 00:50:55;;;;;;;3.60;2.70;;;;;;;12.79;100.00;100265.28;5326930;27;20415;-81
2022/12/31 00:53:27;;;;;;;2.10;1.73;;;;;;;12.75;100.00;100273.84;5329007;27;20600;-81
2022/12/31 00:56:03;;;;;;;2.45;1.90;;;;;;;12.78;100.00;100244.91;5328063;27;20059;-81
2022/12/31 00:58:35;;;;;;;;;;;;;;;12.86;100.00;100254.75;5336910;27;20028;-80
2022/12/31 01:01:17;;;;;;;6.88;2.03;;;;;;;12.73;100.00;100254.44;5333010;27;19920;-81
2022/12/31 01:03:51;;;;;;;2.75;2.00;;;;;;;12.71;100.00;100259.97;5336409;27;20043;-81
2022/12/31 01:06:26;;;;;;;2.25;1.90;;;;;;;12.74;100.00;100248.91;5332852;27;20518;-80
2022/12/31 01:08:57;;;;;;;2.33;1.75;;;;;;;12.71;100.00;100257.31;5331439;27;20016;-80
2022/12/31 01:11:29;;;;;;;1.70;1.60;;;;;;;12.69;100.00;100251.25;5311116;27;20024;-80
2022/12/31 01:14:13;;;;;;;3.90;1.90;;;;;;;12.72;100.00;100234.06;5346048;27;20034;-81
2022/12/31 01:16:47;;;;;;;1.55;1.45;;;;;;;12.65;100.00;100237.41;5340630;27;20091;-80
2022/12/31 01:19:21;;;;;;;1.50;1.40;;;;;;;12.64;100.00;100233.06;5333367;27;20059;-81
2022/12/31 01:21:53;;;;;;;1.50;1.20;;;;;;;12.60;100.00;100233.56;5331061;27;21771;-81
2022/12/31 01:24:25;;;;;;;4.43;3.05;;;;;;;12.58;100.00;100240.94;5332321;27;20078;-81
2022/12/31 01:26:56;;;;;;;4.65;1.40;;;;;;;12.56;100.00;100243.78;5327513;27;20036;-81
2022/12/31 01:29:28;;;;;;;1.77;1.00;;;;;;;12.56;100.00;100250.97;5327674;27;20057;-80
2022/12/31 01:31:59;;;;;;;1.45;0.90;;;;;;;12.51;100.00;100250.66;5325229;27;20033;-80
2022/12/31 01:34:31;;;;;;;1.15;1.05;;;;;;;12.48;100.00;100265.19;5333078;27;20530;-81
2022/12/31 01:37:02;;;;;;;3.45;1.10;;;;;;;12.44;100.00;100256.66;5327264;27;20026;-81
2022/12/31 01:39:33;;;;;;;1.60;0.82;;;;;;;12.45;100.00;100246.81;5334787;27;20492;-81
2022/12/31 01:42:05;;;;;;;1.40;1.02;;;;;;;12.42;100.00;100261.34;5329550;27;20077;-81
2022/12/31 01:44:39;;;;;;;2.42;1.00;;;;;;;12.48;100.00;100259.81;5333855;27;20036;-81
2022/12/31 01:47:18;;;;;;;0.70;0.70;;;;;;;12.47;100.00;100264.34;5336301;27;20089;-81
2022/12/31 01:49:57;;;;;;;1.10;0.73;;;;;;;12.45;100.00;100287.75;5333246;27;20062;-81
2022/12/31 01:52:40;;;;;;;2.13;0.90;;;;;;;12.45;100.00;100300.31;5337092;27;20032;-81
2022/12/31 01:55:18;;;;;;;1.10;0.82;;;;;;;12.51;100.00;100331.72;5341268;27;20039;-81
2022/12/31 01:57:54;;;;;;;1.15;0.90;;;;;;;12.48;100.00;100327.56;5334354;27;20027;-81
2022/12/31 02:00:25;;;;;;;1.60;1.00;;;;;;;12.47;100.00;100301.81;5335908;27;20036;-80
2022/12/31 02:02:57;;;;;;;1.95;1.17;;;;;;;12.43;100.00;100263.03;5339977;27;20028;-81
2022/12/31 02:05:35;;;;;;;1.83;1.40;;;;;;;12.49;100.00;100274.88;5338187;27;20031;-81
2022/12/31 02:08:07;;;;;;;2.13;1.42;;;;;;;12.43;100.00;100281.75;5334487;27;20027;-81
2022/12/31 02:10:38;;;;;;;1.63;1.52;;;;;;;12.42;100.00;100287.25;5311663;27;20028;-80
2022/12/31 02:13:10;;;;;;;1.60;1.50;;;;;;;12.44;100.00;100277.22;5339288;27;20034;-81
2022/12/31 02:16:05;;;;;;;2.28;1.60;;;;;;;12.47;100.00;100292.94;5348975;27;20047;-80
2022/12/31 02:19:03;;;;;;;3.55;2.47;;;;;;;12.45;100.00;100297.63;5351674;27;20050;-81
2022/12/31 02:22:00;;;;;;;3.20;2.90;;;;;;;12.52;100.00;100309.34;5329499;27;20110;-80
2022/12/31 02:24:44;;;;;;;;;;;;;;;12.63;100.00;100318.84;5361279;27;20032;-80
2022/12/31 02:28:14;;;;;;;2.83;2.50;;;;;;;12.57;100.00;100320.38;5350940;27;20341;-81
2022/12/31 02:30:51;;;;;;;2.72;2.53;;;;;;;12.52;100.00;100322.72;5316717;27;20100;-81
2022/12/31 02:33:34;;;;;;;2.95;2.75;;;;;;;12.53;100.00;100331.56;5349977;27;20020;-81
2022/12/31 02:36:11;;;;;;;2.80;2.60;;;;;;;12.53;100.00;100323.53;5359506;27;20385;-81
2022/12/31 02:38:46;;;;;;;3.40;2.90;;;;;;;12.50;100.00;100324.72;5355017;27;20737;-81
2022/12/31 02:44:26;;;;;;;4.68;3.40;;;;;;;12.53;100.00;100340.41;5358312;27;20106;-82
2022/12/31 02:47:09;;;;;;;4.68;4.05;;;;;;;12.52;100.00;100343.25;5347936;27;20563;-81
2022/12/31 02:50:05;;;;;;;5.05;4.55;;;;;;;12.47;100.00;100341.09;5351965;27;20031;-81
2022/12/31 02:52:55;;;;;;;7.07;4.28;;;;;;;12.45;100.00;100324.38;5353026;27;20034;-81
2022/12/31 02:55:41;;;;;;;5.63;5.13;;;;;;;12.45;100.00;100321.72;5353792;27;20028;-81
2022/12/31 02:58:20;;;;;;;5.07;4.63;;;;;;;12.40;100.00;100322.19;5357853;27;20027;-81
2022/12/31 03:03:46;;;;;;;4.85;4.45;;;;;;;12.35;100.00;100316.50;5356124;27;20134;-80
2022/12/31 03:06:17;;;;;;;5.93;4.55;;;;;;;12.39;100.00;100315.16;5349763;27;20157;-81
2022/12/31 03:14:31;;;;;;;3.90;3.60;;;;;;;12.30;100.00;100308.16;5358516;27;20031;-80
2022/12/31 03:17:02;;;;;;;4.55;3.20;;;;;;;12.30;100.00;100303.63;5359422;27;20026;-81
2022/12/31 03:22:26;;;;;;;4.20;3.80;;;;;;;12.26;100.00;100299.63;5340217;27;20027;-81
2022/12/31 03:27:59;;;;;;;3.05;2.78;;;;;;;12.29;100.00;100287.78;5333942;27;20039;-81
2022/12/31 03:30:32;;;;;;;2.97;2.25;;;;;;;12.29;100.00;100287.78;5335615;27;20020;-80
2022/12/31 03:33:05;;;;;;;2.58;2.38;;;;;;;12.28;100.00;100291.44;5336733;27;20090;-80
2022/12/31 03:35:38;;;;;;;3.20;2.60;;;;;;;12.29;100.00;100290.47;5337993;27;20020;-80
2022/12/31 03:38:10;;;;;;;3.08;2.80;;;;;;;12.26;100.00;100283.59;5340175;27;20043;-80
2022/12/31 03:40:48;;;;;;;3.38;3.08;;;;;;;12.26;100.00;100275.56;5338061;27;20028;-81
2022/12/31 03:43:19;;;;;;;3.40;3.10;;;;;;;12.23;100.00;100267.88;5340333;27;20031;-81
2022/12/31 03:45:52;;;;;;;3.28;3.03;;;;;;;12.23;100.00;100261.69;5340501;27;20119;-81
2022/12/31 03:48:24;;;;;;;2.78;2.58;;;;;;;12.21;100.00;100263.72;5325721;27;20012;-81
2022/12/31 03:50:56;;;;;;;3.10;2.80;;;;;;;12.20;100.00;100259.34;5350259;27;20024;-80
2022/12/31 03:53:27;;;;;;;2.95;2.75;;;;;;;12.20;100.00;100262.03;5342134;27;20038;-79
2022/12/31 03:55:58;;;;;;;3.85;2.60;;;;;;;12.18;100.00;100259.50;5337035;27;20035;-81
2022/12/31 03:58:30;;;;;;;3.13;2.85;;;;;;;12.19;100.00;100258.53;5336912;27;20055;-81
2022/12/31 04:01:01;;;;;;;2.30;2.10;;;;;;;12.23;100.00;100254.50;5335070;27;20123;-80
2022/12/31 04:03:32;;;;;;;2.20;2.10;;;;;;;12.21;100.00;100259.19;5330435;27;20034;-80
2022/12/31 04:06:03;;;;;;;2.60;2.40;;;;;;;12.25;100.00;100262.34;5332446;27;20388;-80
2022/12/31 04:08:35;;;;;;;2.80;1.80;;;;;;;12.24;100.00;100248.16;5317357;27;20038;-81
2022/12/31 04:11:06;;;;;;;2.45;1.88;;;;;;;12.29;100.00;100251.16;5329246;27;20038;-81
2022/12/31 04:13:37;;;;;;;2.10;1.90;;;;;;;12.35;100.00;100256.84;5338130;27;20026;-80
2022/12/31 04:16:09;;;;;;;1.35;1.25;;;;;;;12.41;100.00;100254.34;5337731;27;20154;-80
2022/12/31 04:18:40;;;;;;;1.67;1.30;;;;;;;12.50;100.00;100255.16;5328411;27;20036;-80
2022/12/31 04:21:12;;;;;;;5.35;1.60;;;;;;;12.55;100.00;100246.63;5330409;27;20125;-81
2022/12/31 04:23:44;;;;;;;2.88;1.35;;;;;;;12.60;100.00;100241.59;5334579;27;20035;-80
2022/12/31 04:26:15;;;;;;;4.38;1.33;;;;;;;12.68;100.00;100245.09;5332667;27;20036;-80
2022/12/31 04:28:47;;;;;;;2.47;1.40;;;;;;;12.78;100.00;100239.56;5330642;27;20032;-81
2022/12/31 04:31:18;;;;;;;2.20;1.38;;;;;;;12.92;100.00;100239.84;5334725;27;22202;-81
2022/12/31 04:33:49;;;;;;;3.88;1.20;;;;;;;12.97;100.00;100230.31;5333000;27;20024;-81
2022/12/31 04:36:21;;;;;;;1.50;1.20;;;;;;;13.08;100.00;100225.56;5336175;27;20114;-81
2022/12/31 04:38:52;;;;;;;4.45;1.45;;;;;;;13.18;100.00;100212.78;5335104;27;20134;-81
2022/12/31 04:41:25;;;;;;;2.42;1.00;;;;;;;13.33;100.00;100234.38;5333409;27;20032;-80
2022/12/31 04:43:58;;;;;;;4.57;1.00;;;;;;;13.39;100.00;100247.03;5316958;27;20134;-80
2022/12/31 04:46:32;;;;;;;4.30;1.50;;;;;;;13.45;100.00;100253.53;5314381;27;20034;-80
2022/12/31 04:49:03;;;;;;;2.10;1.05;;;;;;;13.49;100.00;100250.34;5333248;27;20034;-80
2022/12/31 04:51:37;;;;;;;4.60;1.00;;;;;;;13.57;100.00;100257.50;5332369;27;20024;-80
2022/12/31 04:54:08;;;;;;;4.25;0.90;;;;;;;13.70;100.00;100254.25;5335236;27;20048;-81
2022/12/31 04:56:39;;;;;;;3.28;0.90;;;;;;;13.76;100.00;100267.78;5335440;27;20110;-81
2022/12/31 04:59:11;;;;;;;3.83;1.27;;;;;;;13.76;100.00;100275.81;5335970;27;20032;-81
2022/12/31 05:01:43;;;;;;;3.47;0.80;;;;;;;13.89;100.00;100295.84;5333971;27;20016;-81
2022/12/31 05:04:14;;;;;;;2.80;1.13;;;;;;;13.94;100.00;100272.84;5334548;27;20031;-80
2022/12/31 05:06:45;;;;;;;3.80;0.82;;;;;;;14.05;100.00;100297.59;5335376;27;20522;-81
2022/12/31 05:09:16;;;;;;;5.80;1.35;;;;;;;14.02;100.00;100273.78;5334414;27;20034;-80
2022/12/31 05:11:48;;;;;;;7.13;0.90;;;;;;;13.99;100.00;100288.41;5333506;27;20089;-80
2022/12/31 05:14:19;;;;;;;4.28;0.95;;;;;;;13.91;100.00;100269.69;5339818;27;20407;-80
2022/12/31 05:16:51;;;;;;;3.47;0.98;;;;;;;13.93;100.00;100262.28;5343429;27;20027;-81
2022/12/31 05:19:22;;;;;;;3.88;0.85;;;;;;;14.08;100.00;100297.22;5339988;27;20075;-81
2022/12/31 05:24:43;;;;;;;5.32;0.85;;;;;;;14.10;100.00;100277.25;5335410;27;20054;-80
2022/12/31 05:27:15;;;;;;;1.38;0.55;;;;;;;14.05;100.00;100274.28;5335607;27;20125;-80
2022/12/31 05:29:46;;;;;;;2.72;0.60;;;;;;;14.12;100.00;100294.00;5340206;27;20016;-80
2022/12/31 05:32:18;;;;;;;2.70;0.60;;;;;;;14.10;100.00;100303.25;5337826;27;20058;-81
2022/12/31 05:34:49;;;;;;;3.58;0.50;;;;;;;14.10;100.00;100314.78;5338112;27;20051;-80
2022/12/31 05:37:20;;;;;;;3.05;0.70;;;;;;;14.06;100.00;100313.50;5340780;27;20027;-81
2022/12/31 05:39:52;;;;;;;1.85;0.50;;;;;;;14.10;100.00;100322.00;5315576;27;20138;-81
2022/12/31 05:42:23;;;;;;;2.78;0.60;;;;;;;14.11;100.00;100312.94;5323900;27;20387;-82
2022/12/31 05:44:54;;;;;;;4.30;0.82;;;;;;;14.09;100.00;100339.09;5337426;27;20020;-80
2022/12/31 05:47:26;;;;;;;2.35;0.60;;;;;;;14.13;100.00;100316.28;5319785;27;20063;-81
2022/12/31 05:49:57;;;;;;;1.50;0.50;;;;;;;14.10;100.00;100309.44;5338599;27;20107;-81
2022/12/31 05:52:29;;;;;;;3.08;0.60;;;;;;;14.09;100.00;100317.66;5335105;27;20032;-81
2022/12/31 05:55:00;;;;;;;4.15;0.73;;;;;;;14.18;100.00;100314.75;5313332;27;20016;-80
2022/12/31 05:57:31;;;;;;;2.00;0.40;;;;;;;14.17;100.00;100317.59;5337245;27;20048;-80
2022/12/31 06:00:05;;;;;;;4.10;0.82;;;;;;;14.25;100.00;100293.38;5332903;27;20047;-81
2022/12/31 06:02:37;;;;;;;1.73;0.70;;;;;;;14.34;100.00;100305.72;5332481;27;20499;-79
2022/12/31 06:05:08;;;;;;;2.50;0.80;;;;;;;14.29;100.00;100315.34;5339996;27;20035;-81
2022/12/31 06:07:40;;;;;;;1.17;0.68;;;;;;;14.31;100.00;100318.69;5342886;27;20080;-81
2022/12/31 06:10:11;;;;;;;3.03;0.60;;;;;;;14.46;100.00;100313.34;5340126;27;20031;-80
2022/12/31 06:12:42;;;;;;;2.80;0.70;;;;;;;14.42;100.00;100315.56;5331772;27;20028;-80
2022/12/31 06:15:14;;;;;;;3.38;1.15;;;;;;;14.53;100.00;100325.88;5337849;27;20110;-81
2022/12/31 06:17:45;;;;;;;1.50;0.50;;;;;;;14.57;100.00;100342.44;5332137;27;20065;-80
2022/12/31 06:20:16;;;;;;;1.50;0.50;;;;;;;14.59;100.00;100347.66;5359777;27;20130;-81
2022/12/31 06:22:48;;;;;;;2.78;0.82;;;;;;;14.74;100.00;100330.59;5359772;27;20049;-80
2022/12/31 06:25:19;;;;;;;1.63;0.47;;;;;;;14.70;100.00;100333.81;5366333;27;20089;-79
2022/12/31 06:27:50;;;;;;;1.85;0.50;;;;;;;14.94;100.00;100330.06;5363602;27;20048;-80
2022/12/31 06:30:21;;;;;;;1.45;0.40;;;;;;;15.11;100.00;100331.56;5363183;27;20180;-80
2022/12/31 06:32:54;;;;;;;0.68;0.40;;;;;;;15.11;100.00;100330.69;5357487;27;20012;-80
2022/12/31 06:35:25;;;;;;;0.80;0.50;;;;;;;15.19;100.00;100329.78;5360101;27;20072;-80
2022/12/31 06:37:56;;;;;;;2.15;0.50;;;;;;;15.23;100.00;100331.91;5356891;27;20436;-80
2022/12/31 06:40:28;;;;;;;2.28;0.40;;;;;;;15.28;100.00;100329.50;5357710;27;20095;-81
2022/12/31 06:42:59;;;;;;;0.50;0.35;;;;;;;15.21;100.00;100325.88;5356372;27;20490;-81
2022/12/31 06:45:31;;;;;;;2.90;0.50;;;;;;;15.38;100.00;100329.22;5357562;27;20031;-81
2022/12/31 06:48:02;;;;;;;2.28;0.60;;;;;;;15.30;100.00;100345.44;5355379;27;20023;-81
2022/12/31 06:50:34;;;;;;;2.60;0.60;;;;;;;15.20;100.00;100334.13;5356707;27;20028;-81
2022/12/31 06:53:06;;;;;;;1.88;0.40;;;;;;;15.24;100.00;100328.22;5358450;27;20024;-81
2022/12/31 06:55:38;;;;;;;1.38;0.50;;;;;;;15.23;100.00;100328.41;5351314;27;20035;-81
2022/12/31 06:58:13;;;;;;;3.25;0.70;;;;;;;15.38;100.00;100368.72;5357691;27;20029;-80
2022/12/31 07:00:59;;;;;;;1.70;0.40;;;;;;;15.41;100.00;100353.06;5360117;27;20529;-81
2022/12/31 07:03:47;;;;;;;3.27;0.60;;;;;;;15.45;100.00;100343.59;5358958;27;20493;-80
2022/12/31 07:06:47;;;;;;;2.10;0.60;;;;;;;15.52;100.00;100330.25;5357270;27;20028;-80
2022/12/31 07:10:06;;;;;;;4.07;0.70;;;;;;;15.50;100.00;100353.78;5355774;27;20027;-79
2022/12/31 07:12:58;;;;;;;2.78;0.60;;;;;;;15.57;100.00;100335.03;5338270;27;20063;-79
2022/12/31 07:15:51;;;;;;;3.10;0.70;;;;;;;15.48;100.00;100343.22;5353874;27;20026;-80
2022/12/31 07:18:34;;;;;;;2.92;0.60;;;;;;;15.50;100.00;100372.59;5353956;27;20043;-80
2022/12/31 07:21:12;;;;;;;2.78;0.80;;;;;;;15.46;100.00;100352.47;5331742;27;20089;-80
2022/12/31 07:23:44;;;;;;;3.65;0.88;;;;;;;15.47;100.00;100354.16;5337857;27;20361;-80
2022/12/31 07:26:26;;;;;;;4.75;0.88;;;;;;;15.57;100.00;100345.78;5331968;27;20016;-81
2022/12/31 07:29:36;;;;;;;3.65;0.80;;;;;;;15.48;100.00;100391.59;5338674;27;20028;-79
2022/12/31 07:32:32;;;;;;;3.42;0.98;;;;;;;15.57;100.00;100352.00;5332108;27;20028;-80
2022/12/31 07:35:26;;;;;;;3.05;0.75;;;;;;;15.57;100.00;100356.53;5328046;27;20024;-79
2022/12/31 07:38:19;;;;;;;2.70;0.90;;;;;;;15.51;100.00;100350.06;5331426;27;20043;-79
2022/12/31 07:41:18;;;;;;;4.15;1.02;;;;;;;15.52;100.00;100383.16;5331716;27;20079;-79
2022/12/31 07:44:02;;;;;;;4.57;1.05;;;;;;;15.46;100.00;100403.53;5334577;27;20038;-79
2022/12/31 07:46:59;;;;;;;3.35;1.15;;;;;;;15.47;100.00;100362.22;5317161;27;20065;-79
2022/12/31 07:49:32;;;;;;;1.85;0.73;;;;;;;15.30;100.00;100370.47;5336511;27;20062;-79
2022/12/31 07:52:04;;;;;;;2.33;0.73;;;;;;;15.00;100.00;100363.41;5334953;27;20035;-79
2022/12/31 07:54:35;;;;;;;2.15;0.88;;;;;;;14.79;100.00;100358.72;5334169;27;20638;-79
2022/12/31 07:57:10;;;;;;;4.43;1.63;;;;;;;14.74;100.00;100394.16;5328224;27;20038;-79
2022/12/31 08:00:08;;;;;;;3.55;0.85;;;;;;;14.85;100.00;100360.66;5335676;27;20063;-79
2022/12/31 08:02:58;;;;;;;2.92;0.90;;;;;;;14.97;100.00;100364.59;5334607;27;20028;-79
2022/12/31 08:05:46;;;;;;;2.60;0.77;;;;;;;14.90;100.00;100369.00;5333366;27;20058;-79
2022/12/31 08:08:27;;;;;;;4.43;1.00;;;;;;;14.88;100.00;100422.94;5331306;27;20038;-79
2022/12/31 08:11:12;;;;;;;3.45;0.80;;;;;;;14.75;100.00;100399.34;5310641;27;20023;-79
2022/12/31 08:13:44;;;;;;;5.10;1.08;;;;;;;14.59;100.00;100409.41;5332342;27;20016;-80
2022/12/31 08:16:16;;;;;;;3.10;1.10;;;;;;;14.54;100.00;100432.19;5333315;27;20043;-80
2022/12/31 08:18:47;;;;;;;3.40;0.88;;;;;;;14.43;100.00;100427.25;5331093;27;20055;-79
2022/12/31 08:21:24;;;;;;;3.25;0.95;;;;;;;14.51;100.00;100439.75;5331130;27;20129;-79
2022/12/31 08:24:07;;;;;;;3.70;0.93;;;;;;;14.49;100.00;100468.63;5346318;27;20100;-79
2022/12/31 08:26:59;;;;;;;4.10;1.02;;;;;;;14.52;100.00;100444.97;5335855;27;20054;-79
2022/12/31 08:29:33;;;;;;;3.88;0.88;;;;;;;14.56;100.00;100474.97;5337016;27;20031;-78
2022/12/31 08:32:15;;;;;;;4.38;0.95;;;;;;;14.79;100.00;100493.78;5338969;27;20031;-80
2022/12/31 08:35:41;;;;;;;2.80;0.93;;;;;;;14.93;100.00;100476.06;5340729;27;20431;-79
2022/12/31 08:38:15;;;;;;;1.58;0.70;;;;;;;15.12;100.00;100472.88;5258527;28;20030;-79
2022/12/31 08:41:13;;;;;;;2.05;0.65;;;;;;;15.19;100.00;100494.50;5253844;28;20061;-79
2022/12/31 08:44:32;;;;;;;1.98;0.85;;;;;;;15.01;100.00;100493.97;5296870;27;20036;-79
2022/12/31 08:47:40;;;;;;;2.95;0.80;;;;;;;14.85;100.00;100501.13;5318818;27;20051;-79
2022/12/31 08:50:14;;;;;;;3.63;0.90;;;;;;;14.82;100.00;100524.81;5338242;27;20028;-79
2022/12/31 08:52:46;;;;;;;3.78;0.90;;;;;;;14.96;100.00;100505.25;5333008;27;20020;-79
2022/12/31 08:55:19;;;;;;;4.38;0.85;;;;;;;15.07;100.00;100502.13;5338031;27;20044;-79
2022/12/31 08:58:19;;;;;;;2.22;0.63;;;;;;;15.22;100.00;100558.63;5335528;27;20023;-79
2022/12/31 09:00:55;;;;;;;3.00;1.05;;;;;;;15.33;100.00;100541.22;5339326;27;20119;-78
2022/12/31 09:03:42;;;;;;;4.78;0.90;;;;;;;15.30;100.00;100528.16;5342086;27;20791;-79
2022/12/31 09:06:22;;;;;;;4.43;1.10;;;;;;;15.27;100.00;100548.16;5337089;27;20421;-79
2022/12/31 09:09:05;;;;;;;1.02;0.68;;;;;;;15.23;100.00;100559.44;5328646;27;20024;-79
2022/12/31 09:11:55;;;;;;;4.00;1.17;;;;;;;15.12;100.00;100558.00;5338213;27;20771;-79
2022/12/31 09:14:44;;;;;;;1.98;1.00;;;;;;;14.95;100.00;100554.59;5336779;27;20112;-80
2022/12/31 09:17:24;;;;;;;4.03;1.05;;;;;;;14.88;100.00;100578.66;5318421;27;20112;-80
2022/12/31 09:19:56;;;;;;;3.53;1.25;;;;;;;14.68;100.00;100583.63;5330681;27;20048;-80
2022/12/31 09:22:27;;;;;;;3.67;0.93;;;;;;;14.52;100.00;100589.03;5336361;27;20032;-80
2022/12/31 09:24:59;;;;;;;5.15;1.15;;;;;;;14.42;100.00;100597.28;5333610;27;20022;-81
2022/12/31 09:27:45;;;;;;;4.43;1.42;;;;;;;14.38;100.00;100591.44;5317758;27;20026;-80
2022/12/31 09:30:17;;;;;;;4.43;1.10;;;;;;;14.30;100.00;100602.19;5344697;27;20037;-80
2022/12/31 09:33:06;;;;;;;4.88;1.10;;;;;;;14.29;100.00;100587.13;5340393;27;20031;-80
2022/12/31 09:35:51;;;;;;;3.03;1.10;;;;;;;14.30;100.00;100599.50;5341860;27;20038;-80
2022/12/31 09:38:29;;;;;;;3.67;1.10;;;;;;;14.29;100.00;100599.69;5342884;27;20306;-80
2022/12/31 09:41:37;;;;;;;3.03;1.17;;;;;;;14.29;100.00;100603.22;5317966;27;20111;-80
2022/12/31 09:44:44;;;;;;;3.25;1.13;;;;;;;14.35;100.00;100607.03;5337976;27;20031;-80
2022/12/31 09:47:48;;;;;;;3.53;1.10;;;;;;;14.51;100.00;100601.59;5339560;27;20034;-80
2022/12/31 09:50:34;;;;;;;4.63;1.40;;;;;;;14.56;100.00;100604.59;5332338;27;20046;-79
2022/12/31 09:53:43;;;;;;;5.07;2.15;;;;;;;14.57;100.00;100600.09;5342658;27;20212;-79
2022/12/31 09:56:24;;;;;;;2.63;1.02;;;;;;;14.63;100.00;100599.41;5323669;27;20026;-80
2022/12/31 09:59:13;;;;;;;3.47;1.42;;;;;;;14.65;100.00;100601.94;5343973;27;20023;-79
2022/12/31 10:01:56;;;;;;;3.50;1.45;;;;;;;14.72;100.00;100603.72;5331772;27;20054;-79
2022/12/31 10:04:46;;;;;;;3.20;1.05;;;;;;;14.72;100.00;100603.72;5312895;27;20032;-78
2022/12/31 10:07:48;;;;;;;7.53;1.50;;;;;;;14.78;100.00;100606.72;5333445;27;20051;-79
2022/12/31 10:10:33;;;;;;;2.58;0.70;;;;;;;14.87;100.00;100622.63;5326930;28;20020;-79
2022/12/31 10:13:27;;;;;;;3.97;1.73;;;;;;;14.92;100.00;100614.06;5343226;27;20480;-79
2022/12/31 10:16:19;;;;;;;5.93;1.80;;;;;;;14.96;100.00;100607.31;5325034;28;20384;-79
2022/12/31 10:18:57;;;;;;;6.38;1.30;;;;;;;15.00;100.00;100611.28;5333542;27;20044;-78
2022/12/31 10:21:42;;;;;;;5.80;1.90;;;;;;;15.06;100.00;100621.34;5324046;27;20123;-79
2022/12/31 10:24:36;;;;;;;4.45;1.38;;;;;;;15.28;100.00;100613.47;5328774;27;20035;-79
2022/12/31 10:27:49;;;;;;;3.13;1.10;;;;;;;15.40;100.00;100605.84;5347976;27;20378;-79
2022/12/31 10:30:23;;;;;;;5.32;1.67;;;;;;;15.42;100.00;100609.19;5303663;28;20049;-79
2022/12/31 10:33:16;;;;;;;5.78;1.88;;;;;;;15.50;100.00;100590.31;5348232;27;20027;-79
2022/12/31 10:36:19;;;;;;;5.20;1.30;;;;;;;15.61;100.00;100592.56;5334339;27;20499;-79
2022/12/31 10:39:06;;;;;;;5.65;1.50;;;;;;;15.70;100.00;100583.38;5295242;28;20091;-80
2022/12/31 10:41:55;;;;;;;4.80;1.73;;;;;;;15.74;100.00;100591.91;5326214;28;20100;-79
2022/12/31 10:44:41;;;;;;;4.13;1.20;;;;;;;15.89;100.00;100583.94;5327143;27;20035;-79
2022/12/31 10:47:54;;;;;;;3.83;1.27;;;;;;;15.96;100.00;100608.25;5328983;27;20480;-80
2022/12/31 10:50:41;;;;;;;6.07;1.30;;;;;;;16.06;100.00;100593.50;5258165;28;20129;-80
2022/12/31 10:53:40;;;;;;;6.78;1.48;;;;;;;15.98;100.00;100608.88;5333627;27;20476;-80
2022/12/31 10:56:48;;;;;;;6.35;0.98;;;;;;;15.94;100.00;100610.28;5331865;27;20024;-79
2022/12/31 10:59:25;;;;;;;7.18;2.20;;;;;;;16.01;100.00;100613.91;5326835;28;20070;-80
2022/12/31 11:02:03;;;;;;;4.50;1.20;;;;;;;16.03;100.00;100598.41;5313222;27;20032;-80
2022/12/31 11:05:04;;;;;;;2.95;1.20;;;;;;;16.13;100.00;100600.81;5347079;27;20027;-80
2022/12/31 11:07:57;;;;;;;3.53;1.38;;;;;;;16.20;100.00;100615.22;5348121;27;20106;-80
2022/12/31 11:10:53;;;;;;;3.28;1.08;;;;;;;16.26;100.00;100619.84;5340405;27;20020;-79
2022/12/31 11:13:47;;;;;;;3.55;1.17;;;;;;;16.20;100.00;100601.78;5338737;27;20031;-80
2022/12/31 11:16:28;;;;;;;5.05;1.38;;;;;;;16.28;100.00;100608.91;5326055;27;20020;-79
2022/12/31 11:19:17;;;;;;;5.63;1.23;;;;;;;16.23;100.00;100612.16;5325737;27;20358;-79
2022/12/31 11:22:25;;;;;;;6.82;1.40;;;;;;;16.35;100.00;100610.66;5344947;27;20042;-79
2022/12/31 11:25:27;;;;;;;4.80;1.50;;;;;;;16.40;100.00;100605.56;5346760;27;20476;-79
2022/12/31 11:28:27;;;;;;;7.43;2.10;;;;;;;16.40;100.00;100604.72;5327853;27;20012;-79
2022/12/31 11:31:14;;;;;;;6.07;1.63;;;;;;;16.42;100.00;100637.66;5346990;27;20016;-79
2022/12/31 11:34:09;;;;;;;6.55;1.33;;;;;;;16.40;100.00;100612.81;5347367;27;20024;-79
2022/12/31 11:37:08;;;;;;;6.72;2.10;;;;;;;16.40;100.00;100610.13;5347127;27;20030;-79
2022/12/31 11:39:58;;;;;;;4.80;1.90;;;;;;;16.38;100.00;100614.84;5346320;27;20038;-79
2022/12/31 11:42:43;;;;;;;6.60;1.45;;;;;;;16.34;100.00;100633.22;5347608;27;20036;-79
2022/12/31 11:45:33;;;;;;;6.57;1.42;;;;;;;16.29;100.00;100637.50;5346756;27;20047;-79
2022/12/31 11:48:25;;;;;;;3.85;1.10;;;;;;;16.21;100.00;100639.22;5347082;27;20063;-79
2022/12/31 11:51:18;;;;;;;6.65;1.70;;;;;;;16.06;100.00;100615.03;5346899;27;20026;-79
2022/12/31 11:54:07;;;;;;;6.38;1.63;;;;;;;15.72;100.00;100626.22;5325531;28;20074;-79
2022/12/31 11:56:49;;;;;;;5.38;1.30;;;;;;;15.54;100.00;100623.03;5324198;28;20104;-79
2022/12/31 11:59:21;;;;;;;5.95;2.15;;;;;;;15.54;100.00;100631.09;5336863;27;20157;-79
2022/12/31 12:02:12;;;;;;;5.00;1.30;;;;;;;15.56;100.00;100627.19;5328148;27;20075;-79
2022/12/31 12:04:48;;;;;;;4.45;1.45;;;;;;;15.40;100.00;100638.91;5325151;28;20380;-79
2022/12/31 12:07:20;;;;;;;5.07;1.20;;;;;;;15.49;100.00;100648.59;5338003;27;20430;-80
2022/12/31 12:09:54;;;;;;;5.63;1.30;;;;;;;15.40;100.00;100638.09;5347472;27;20055;-80
2022/12/31 12:12:37;;;;;;;6.70;1.65;;;;;;;15.37;100.00;100636.56;5345210;27;20106;-80
2022/12/31 12:15:15;;;;;;;7.07;1.70;;;;;;;15.39;100.00;100620.28;5345366;27;20417;-79
2022/12/31 12:17:56;;;;;;;6.07;1.95;;;;;;;15.40;100.00;100632.72;5327463;27;20034;-79
2022/12/31 12:20:31;;;;;;;5.93;1.50;;;;;;;15.30;100.00;100628.41;5346452;27;20442;-79
2022/12/31 12:23:14;;;;;;;3.55;1.30;;;;;;;15.13;100.00;100625.00;5315824;28;20051;-79
2022/12/31 12:25:46;;;;;;;4.18;1.30;;;;;;;14.99;100.00;100620.38;5319839;27;20028;-80
2022/12/31 12:28:17;;;;;;;6.30;1.38;;;;;;;14.87;100.00;100632.53;5337589;27;20020;-80
2022/12/31 12:31:04;;;;;;;4.03;1.85;;;;;;;14.80;100.00;100634.25;5346816;27;20422;-80
2022/12/31 12:33:44;;;;;;;6.70;1.48;;;;;;;14.85;100.00;100627.34;5346166;27;20107;-80